Time;durP1;ratioP1;P1;durP2;ratioP2;P2;SDS_P1;SDS_P2;PMS_P1;PMS_P2;Temp;Humidity;BMP_temperature;BMP_pressure;BME280_temperature;BME280_humidity;BME280_pressure;Samples;Min_cycle;Max_cycle;Signal;HPM_P1;HPM_P2
2023/08/23 00:00:40;;;;;;;4.10;3.80;;;16.40;99.90;;;;;;5048221;28;20513;-51
2023/08/23 00:03:06;;;;;;;53.08;5.47;;;16.30;99.90;;;;;;5048233;28;20124;-55
2023/08/23 00:05:31;;;;;;;28.40;4.63;;;16.30;99.90;;;;;;5046022;28;20056;-54
2023/08/23 00:07:57;;;;;;;122.45;6.88;;;16.30;99.90;;;;;;5046796;28;20036;-51
2023/08/23 00:10:22;;;;;;;1.35;0.65;;;16.30;99.90;;;;;;5047375;28;20087;-52
2023/08/23 00:12:53;;;;;;;0.70;0.60;;;16.20;99.90;;;;;;5046910;28;20059;-54
2023/08/23 00:15:18;;;;;;;0.60;0.60;;;16.20;99.90;;;;;;5045870;28;20119;-53
2023/08/23 00:17:44;;;;;;;0.30;0.30;;;16.20;99.90;;;;;;5046931;28;20140;-52
2023/08/23 00:20:10;;;;;;;0.98;0.98;;;16.20;99.90;;;;;;5047992;28;20037;-51
2023/08/23 00:22:36;;;;;;;10.00;2.08;;;16.30;99.90;;;;;;5048373;28;20045;-51
2023/08/23 00:25:01;;;;;;;1.80;1.70;;;16.20;99.90;;;;;;5047463;28;20040;-51
2023/08/23 00:27:27;;;;;;;2.45;2.22;;;16.20;99.90;;;;;;5048740;28;20036;-51
2023/08/23 00:29:53;;;;;;;0.60;0.60;;;16.10;99.90;;;;;;5047987;28;20492;-53
2023/08/23 00:32:18;;;;;;;0.70;0.70;;;16.10;99.90;;;;;;5048546;28;20036;-58
2023/08/23 00:34:44;;;;;;;0.70;0.65;;;16.00;99.90;;;;;;5048401;28;20180;-52
2023/08/23 00:37:09;;;;;;;0.50;0.50;;;16.10;99.90;;;;;;5047855;28;20053;-51
2023/08/23 00:39:35;;;;;;;0.50;0.50;;;16.10;99.90;;;;;;5047083;28;20029;-51
2023/08/23 00:42:01;;;;;;;1.92;0.30;;;16.10;99.90;;;;;;5048508;28;20025;-53
2023/08/23 00:44:26;;;;;;;0.50;0.50;;;16.10;99.90;;;;;;5048305;28;20032;-52
2023/08/23 00:46:52;;;;;;;9.63;1.92;;;16.00;99.90;;;;;;5047816;28;20167;-52
2023/08/23 00:49:18;;;;;;;15.07;3.63;;;16.00;99.90;;;;;;5047060;28;20044;-52
2023/08/23 00:51:44;;;;;;;13.48;8.07;;;16.00;99.90;;;;;;5030481;28;20037;-51
2023/08/23 00:54:11;;;;;;;9.55;6.90;;;15.90;99.90;;;;;;5047697;28;20486;-51
2023/08/23 00:56:38;;;;;;;8.65;7.03;;;15.80;99.90;;;;;;5047655;28;20049;-51
2023/08/23 00:59:03;;;;;;;8.63;5.95;;;15.80;99.90;;;;;;5045005;28;20033;-52
2023/08/23 01:01:29;;;;;;;7.25;5.60;;;15.80;99.90;;;;;;5047966;28;20033;-54
2023/08/23 01:03:57;;;;;;;5.05;4.07;;;15.80;99.90;;;;;;5048053;28;20029;-51
2023/08/23 01:06:54;;;;;;;3.70;2.95;;;15.80;99.90;;;;;;5046975;28;20106;-51
2023/08/23 01:09:33;;;;;;;2.85;1.95;;;15.70;99.90;;;;;;5041589;28;20053;-52
2023/08/23 01:12:22;;;;;;;1.45;1.35;;;15.70;99.90;;;;;;5047752;28;20045;-56
2023/08/23 01:14:48;;;;;;;1.05;0.95;;;15.70;99.90;;;;;;5047626;28;20040;-52
2023/08/23 01:17:18;;;;;;;69.75;3.78;;;15.60;99.90;;;;;;5047446;28;20383;-54
2023/08/23 01:19:44;;;;;;;2.95;1.73;;;15.60;99.90;;;;;;5046588;28;20514;-53
2023/08/23 01:22:21;;;;;;;74.00;4.93;;;15.50;99.90;;;;;;5048057;28;20124;-53
2023/08/23 01:24:48;;;;;;;7.95;3.30;;;15.40;99.90;;;;;;5047963;28;20045;-51
2023/08/23 01:27:16;;;;;;;21.60;2.08;;;15.40;99.90;;;;;;5045243;28;20482;-51
2023/08/23 01:29:44;;;;;;;2.28;2.17;;;15.30;99.90;;;;;;5046555;28;20421;-51
2023/08/23 01:32:46;;;;;;;1.85;1.45;;;15.30;99.90;;;;;;5047320;28;20048;-55
2023/08/23 01:35:34;;;;;;;1.50;1.40;;;15.30;99.90;;;;;;5047386;28;20041;-52
2023/08/23 01:38:02;;;;;;;2.65;2.00;;;15.30;99.90;;;;;;5046759;28;20135;-57
2023/08/23 01:40:28;;;;;;;2.50;2.30;;;15.30;99.90;;;;;;5047080;28;20513;-52
2023/08/23 01:42:54;;;;;;;16.67;3.35;;;15.30;99.90;;;;;;5047493;28;20045;-53
2023/08/23 01:45:20;;;;;;;25.77;4.25;;;15.30;99.90;;;;;;5047326;28;20095;-52
2023/08/23 01:47:46;;;;;;;4.05;3.70;;;15.30;99.90;;;;;;5047977;28;20518;-54
2023/08/23 01:50:11;;;;;;;2.10;2.00;;;15.30;99.90;;;;;;5050597;28;20048;-53
2023/08/23 01:52:37;;;;;;;12.13;3.50;;;15.30;99.90;;;;;;5050853;28;20552;-53
2023/08/23 01:55:03;;;;;;;30.23;3.30;;;15.20;99.90;;;;;;5051363;28;20025;-52
2023/08/23 01:57:28;;;;;;;;;;;15.20;99.90;;;;;;5051773;28;20041;-51
2023/08/23 01:59:56;;;;;;;5.95;1.77;;;15.20;99.90;;;;;;5050566;28;19917;-51
2023/08/23 02:02:22;;;;;;;69.47;4.75;;;15.10;99.90;;;;;;5051260;28;20410;-55
2023/08/23 02:04:47;;;;;;;2.92;1.70;;;15.10;99.90;;;;;;5050819;28;20068;-53
2023/08/23 02:07:13;;;;;;;1.77;1.60;;;15.10;99.90;;;;;;5050473;28;20037;-51
2023/08/23 02:09:38;;;;;;;2.03;1.92;;;15.00;99.90;;;;;;5050394;28;20037;-54
2023/08/23 02:12:04;;;;;;;2.60;1.55;;;15.00;99.90;;;;;;5050574;28;20332;-55
2023/08/23 02:14:30;;;;;;;2.95;2.35;;;14.90;99.90;;;;;;5049730;28;20033;-52
2023/08/23 02:16:55;;;;;;;3.03;2.83;;;15.00;99.90;;;;;;5050641;28;20495;-52
2023/08/23 02:19:21;;;;;;;7.03;4.53;;;15.00;99.90;;;;;;5049901;28;20033;-52
2023/08/23 02:21:46;;;;;;;5.22;4.93;;;15.10;99.90;;;;;;5050613;28;20797;-54
2023/08/23 02:24:12;;;;;;;82.07;7.82;;;15.00;99.90;;;;;;5050253;28;20395;-51
2023/08/23 02:26:37;;;;;;;7.88;5.55;;;15.00;99.90;;;;;;5047996;28;20052;-52
2023/08/23 02:29:03;;;;;;;44.25;6.28;;;14.90;99.90;;;;;;5031535;28;20510;-51
2023/08/23 02:31:30;;;;;;;10.23;5.82;;;14.80;99.90;;;;;;5049291;28;20040;-53
2023/08/23 02:33:55;;;;;;;59.97;8.57;;;14.70;99.90;;;;;;5049610;28;20037;-53
2023/08/23 02:36:21;;;;;;;121.18;10.18;;;14.70;99.90;;;;;;5048943;28;20047;-51
2023/08/23 02:38:46;;;;;;;12.07;8.73;;;14.70;99.90;;;;;;5049641;28;20064;-51
2023/08/23 02:41:12;;;;;;;72.72;12.52;;;14.60;99.90;;;;;;5049711;28;20044;-54
2023/08/23 02:43:38;;;;;;;9.93;9.07;;;14.60;99.90;;;;;;5050493;28;20152;-51
2023/08/23 02:46:03;;;;;;;28.65;8.73;;;14.60;99.90;;;;;;5049640;28;20036;-51
2023/08/23 02:48:29;;;;;;;9.40;8.30;;;14.60;99.90;;;;;;5049420;28;20029;-51
2023/08/23 02:50:55;;;;;;;54.65;10.00;;;14.60;99.90;;;;;;5049831;28;20037;-54
2023/08/23 02:53:21;;;;;;;19.73;8.50;;;14.70;99.90;;;;;;5050313;28;20033;-54
2023/08/23 02:55:46;;;;;;;33.33;10.60;;;14.60;99.90;;;;;;5049757;28;20540;-54
2023/08/23 02:58:12;;;;;;;9.57;8.73;;;14.60;99.90;;;;;;5049920;28;20120;-51
2023/08/23 03:00:38;;;;;;;9.18;8.30;;;14.60;99.90;;;;;;5049592;28;20418;-52
2023/08/23 03:03:03;;;;;;;8.10;7.40;;;14.60;99.90;;;;;;5050212;28;20582;-51
2023/08/23 03:05:29;;;;;;;50.42;9.25;;;14.70;99.90;;;;;;5048751;28;20459;-54
2023/08/23 03:07:54;;;;;;;98.72;11.35;;;14.70;99.90;;;;;;5049973;28;20104;-51
2023/08/23 03:10:20;;;;;;;15.50;9.57;;;14.80;99.90;;;;;;5049992;28;20055;-51
2023/08/23 03:12:46;;;;;;;8.50;7.80;;;14.80;99.90;;;;;;5050646;28;20072;-51
2023/08/23 03:15:11;;;;;;;8.00;7.25;;;14.80;99.90;;;;;;5049323;28;20485;-55
2023/08/23 03:17:37;;;;;;;22.65;9.25;;;14.80;99.90;;;;;;5049921;28;20347;-54
2023/08/23 03:20:03;;;;;;;39.80;9.38;;;14.90;99.90;;;;;;5048321;28;20041;-51
2023/08/23 03:22:29;;;;;;;19.17;9.85;;;14.90;99.90;;;;;;5050243;28;20086;-51
2023/08/23 03:24:54;;;;;;;9.77;8.38;;;15.00;99.90;;;;;;5048191;28;20514;-53
2023/08/23 03:27:21;;;;;;;10.43;9.50;;;15.00;99.90;;;;;;5047349;28;20029;-54
2023/08/23 03:29:46;;;;;;;;;;;15.00;99.90;;;;;;5048909;28;20041;-52
2023/08/23 03:32:12;;;;;;;10.82;9.75;;;15.10;99.90;;;;;;5049109;28;19921;-51
2023/08/23 03:34:37;;;;;;;10.02;9.13;;;15.10;99.90;;;;;;5048724;28;21241;-55
2023/08/23 03:37:03;;;;;;;10.20;9.30;;;15.20;99.90;;;;;;5048643;28;20037;-53
2023/08/23 03:39:29;;;;;;;12.38;11.13;;;15.30;99.90;;;;;;5048545;28;20033;-53
2023/08/23 03:41:54;;;;;;;12.27;11.15;;;15.30;99.90;;;;;;5049734;28;20044;-51
2023/08/23 03:44:20;;;;;;;12.40;11.20;;;15.30;99.90;;;;;;5047906;28;20033;-51
2023/08/23 03:46:45;;;;;;;13.85;12.45;;;15.30;99.90;;;;;;5047991;28;20049;-52
2023/08/23 03:49:11;;;;;;;14.32;12.93;;;15.30;99.90;;;;;;5044614;28;20033;-51
2023/08/23 03:51:36;;;;;;;16.90;13.57;;;15.40;99.90;;;;;;5049099;28;20040;-51
2023/08/23 03:54:02;;;;;;;14.70;13.15;;;15.40;99.90;;;;;;5048342;28;20033;-52
2023/08/23 03:56:28;;;;;;;15.93;12.93;;;15.50;99.90;;;;;;5048223;28;20120;-56
2023/08/23 03:58:53;;;;;;;14.88;13.23;;;15.50;99.90;;;;;;5030274;28;20036;-51
2023/08/23 04:01:19;;;;;;;14.35;12.85;;;15.50;99.90;;;;;;5049350;28;20409;-51
2023/08/23 04:03:45;;;;;;;14.75;13.13;;;15.50;99.90;;;;;;5048999;28;20037;-51
2023/08/23 04:06:10;;;;;;;15.35;11.52;;;15.50;99.90;;;;;;5047579;28;20111;-54
2023/08/23 04:08:36;;;;;;;12.23;10.65;;;15.50;99.90;;;;;;5047207;28;20033;-52
2023/08/23 04:11:01;;;;;;;12.40;11.10;;;15.50;99.90;;;;;;5048605;28;20068;-51
2023/08/23 04:13:27;;;;;;;15.05;11.63;;;15.50;99.90;;;;;;5048583;28;20510;-54
2023/08/23 04:15:53;;;;;;;13.20;11.90;;;15.50;99.90;;;;;;5048314;28;20044;-54
2023/08/23 04:18:18;;;;;;;12.85;10.98;;;15.50;99.90;;;;;;5047357;28;20051;-53
2023/08/23 04:20:44;;;;;;;13.20;11.93;;;15.50;99.90;;;;;;5048283;28;20139;-51
2023/08/23 04:23:09;;;;;;;13.10;11.90;;;15.50;99.90;;;;;;5048417;28;20037;-51
2023/08/23 04:25:35;;;;;;;11.77;10.68;;;15.50;99.90;;;;;;5048015;28;20037;-51
2023/08/23 04:28:00;;;;;;;15.80;13.63;;;15.50;99.90;;;;;;5048044;28;20379;-53
2023/08/23 04:30:26;;;;;;;12.27;10.02;;;15.50;99.90;;;;;;5047903;28;20462;-53
2023/08/23 04:32:52;;;;;;;14.90;9.45;;;15.50;99.90;;;;;;5047812;28;20125;-54
2023/08/23 04:35:17;;;;;;;10.32;9.32;;;15.40;99.90;;;;;;5048084;28;20494;-52
2023/08/23 04:37:43;;;;;;;9.68;8.77;;;15.50;99.90;;;;;;5048193;28;20040;-56
2023/08/23 04:40:09;;;;;;;9.82;8.52;;;15.40;99.90;;;;;;5047850;28;20083;-52
2023/08/23 04:42:36;;;;;;;49.53;11.20;;;15.40;99.90;;;;;;5030489;28;20043;-55
2023/08/23 04:45:02;;;;;;;13.50;12.18;;;15.40;99.90;;;;;;5047494;28;20045;-51
2023/08/23 04:47:29;;;;;;;13.45;12.15;;;15.40;99.90;;;;;;5047604;28;20494;-51
2023/08/23 04:49:55;;;;;;;15.52;12.73;;;15.40;99.90;;;;;;5047298;28;20509;-51
2023/08/23 04:52:20;;;;;;;13.10;11.25;;;15.40;99.90;;;;;;5048645;28;20029;-55
2023/08/23 04:54:46;;;;;;;9.93;8.93;;;15.40;99.90;;;;;;5048100;28;20091;-53
2023/08/23 04:57:12;;;;;;;12.93;11.32;;;15.40;99.90;;;;;;5048010;28;20029;-52
2023/08/23 04:59:38;;;;;;;25.80;16.45;;;15.50;99.90;;;;;;5044951;28;20043;-52
2023/08/23 05:02:03;;;;;;;;;;;15.50;99.90;;;;;;5047494;28;20046;-52
2023/08/23 05:04:29;;;;;;;18.38;16.17;;;15.60;99.90;;;;;;5047364;28;19917;-52
2023/08/23 05:06:55;;;;;;;26.05;20.92;;;15.60;99.90;;;;;;5029820;28;21238;-54
2023/08/23 05:09:21;;;;;;;32.63;23.00;;;15.60;99.90;;;;;;5047095;28;20041;-53
2023/08/23 05:11:46;;;;;;;26.92;19.80;;;15.60;99.90;;;;;;5047868;28;20029;-51
2023/08/23 05:14:12;;;;;;;29.83;17.05;;;15.60;99.90;;;;;;5048464;28;20061;-53
2023/08/23 05:16:38;;;;;;;21.05;15.65;;;15.60;99.90;;;;;;5048180;28;20036;-52
2023/08/23 05:19:03;;;;;;;15.93;13.88;;;15.60;99.90;;;;;;5029143;28;20056;-53
2023/08/23 05:21:29;;;;;;;22.38;16.55;;;15.60;99.90;;;;;;5048182;28;20044;-53
2023/08/23 05:23:54;;;;;;;24.40;17.65;;;15.60;99.90;;;;;;5050428;28;20509;-51
2023/08/23 05:26:20;;;;;;;40.92;20.77;;;15.70;99.90;;;;;;5051296;28;20037;-51
2023/08/23 05:28:46;;;;;;;38.60;20.27;;;15.70;99.90;;;;;;5051207;28;20395;-51
2023/08/23 05:31:12;;;;;;;33.63;18.60;;;15.70;99.90;;;;;;5050252;28;20044;-53
2023/08/23 05:33:39;;;;;;;53.25;23.00;;;15.70;99.90;;;;;;5050385;28;20044;-56
2023/08/23 05:36:05;;;;;;;41.67;22.13;;;15.70;99.90;;;;;;5050033;28;20037;-50
2023/08/23 05:38:30;;;;;;;24.58;19.88;;;15.70;99.90;;;;;;5050040;28;20037;-51
2023/08/23 05:40:56;;;;;;;28.08;21.30;;;15.70;99.90;;;;;;5048375;28;20530;-51
2023/08/23 05:43:22;;;;;;;27.80;21.15;;;15.70;99.90;;;;;;5050509;28;20401;-52
2023/08/23 05:45:50;;;;;;;23.48;20.23;;;15.70;99.90;;;;;;5049750;28;20041;-54
2023/08/23 05:48:16;;;;;;;26.05;22.77;;;15.80;99.90;;;;;;5049853;28;20045;-52
2023/08/23 05:50:42;;;;;;;30.00;22.02;;;15.80;99.90;;;;;;5047243;28;21967;-55
2023/08/23 05:53:14;;;;;;;25.90;22.15;;;15.80;99.90;;;;;;5048743;28;20502;-54
2023/08/23 05:55:40;;;;;;;26.13;21.38;;;15.80;99.90;;;;;;5048397;28;20045;-51
2023/08/23 05:58:05;;;;;;;26.80;21.20;;;15.80;99.90;;;;;;5049368;28;20041;-52
2023/08/23 06:00:31;;;;;;;29.25;23.00;;;15.80;99.90;;;;;;5048999;28;20041;-52
2023/08/23 06:02:56;;;;;;;33.67;24.48;;;15.80;99.90;;;;;;5045834;28;20045;-54
2023/08/23 06:05:22;;;;;;;26.58;22.55;;;15.90;99.90;;;;;;5047379;28;20495;-54
2023/08/23 06:07:47;;;;;;;29.40;22.25;;;15.90;99.90;;;;;;5046135;28;20056;-54
2023/08/23 06:10:13;;;;;;;30.27;22.30;;;15.90;99.90;;;;;;5044792;28;20041;-52
2023/08/23 06:12:39;;;;;;;26.17;21.25;;;15.90;99.90;;;;;;5047248;28;20029;-51
2023/08/23 06:15:05;;;;;;;33.20;26.30;;;16.00;99.90;;;;;;5030558;28;20041;-51
2023/08/23 06:17:30;;;;;;;;;;;16.00;99.90;;;;;;5047975;28;20116;-52
2023/08/23 06:19:56;;;;;;;26.02;20.13;;;16.00;99.90;;;;;;5048833;28;20026;-53
2023/08/23 06:22:22;;;;;;;31.80;21.27;;;16.00;99.90;;;;;;5049556;28;20110;-54
2023/08/23 06:24:47;;;;;;;23.75;19.67;;;16.10;99.90;;;;;;5049154;28;20124;-51
2023/08/23 06:27:13;;;;;;;24.60;19.73;;;16.20;99.90;;;;;;5049267;28;20410;-51
2023/08/23 06:29:41;;;;;;;21.65;19.45;;;16.30;99.90;;;;;;5007799;28;1183059;-51
2023/08/23 06:32:07;;;;;;;23.13;20.15;;;16.40;99.90;;;;;;5051049;28;20121;-51
2023/08/23 06:34:34;;;;;;;23.27;20.75;;;16.60;99.90;;;;;;5046535;28;20048;-51
2023/08/23 06:37:00;;;;;;;21.30;19.17;;;16.70;99.90;;;;;;5047805;28;20505;-51
2023/08/23 06:39:25;;;;;;;23.67;20.05;;;16.80;99.90;;;;;;5049746;28;20072;-52
2023/08/23 06:41:51;;;;;;;23.48;18.77;;;17.00;99.90;;;;;;5042228;28;20414;-51
2023/08/23 06:44:16;;;;;;;21.35;18.10;;;17.10;99.90;;;;;;5049496;28;20110;-51
2023/08/23 06:46:42;;;;;;;27.02;15.93;;;17.30;99.90;;;;;;5047324;28;20044;-50
2023/08/23 06:49:08;;;;;;;24.10;18.73;;;17.40;99.90;;;;;;5025711;28;20067;-50
2023/08/23 06:51:33;;;;;;;20.48;17.45;;;17.50;99.90;;;;;;5033143;28;20410;-52
2023/08/23 06:53:59;;;;;;;19.63;17.50;;;17.70;99.90;;;;;;5051472;28;20510;-51
2023/08/23 06:56:26;;;;;;;21.90;18.60;;;17.70;99.90;;;;;;5040479;28;20045;-53
2023/08/23 06:58:51;;;;;;;27.08;17.40;;;17.90;99.90;;;;;;5050514;28;20648;-51
2023/08/23 07:01:17;;;;;;;17.60;13.93;;;18.00;99.90;;;;;;5042282;28;20123;-51
2023/08/23 07:03:44;;;;;;;23.67;16.52;;;18.10;99.90;;;;;;5040606;28;20175;-54
2023/08/23 07:06:12;;;;;;;22.60;16.73;;;18.20;99.90;;;;;;5036527;28;20041;-50
2023/08/23 07:08:37;;;;;;;17.40;15.10;;;18.40;99.90;;;;;;5043958;28;20373;-52
2023/08/23 07:11:03;;;;;;;20.00;16.48;;;18.50;99.90;;;;;;5048036;28;20452;-57
2023/08/23 07:13:29;;;;;;;;;;;18.60;99.90;;;;;;5042217;28;20029;-52
2023/08/23 07:15:55;;;;;;;18.35;13.70;;;18.60;99.90;;;;;;5039412;28;20381;-52
2023/08/23 07:18:20;;;;;;;18.30;15.45;;;18.70;99.90;;;;;;5045512;28;20080;-56
2023/08/23 07:20:46;;;;;;;18.75;14.15;;;18.70;99.90;;;;;;5046754;28;20499;-52
2023/08/23 07:23:12;;;;;;;17.90;12.88;;;18.90;99.90;;;;;;5040751;28;20049;-52
2023/08/23 07:25:37;;;;;;;15.55;10.73;;;18.90;99.90;;;;;;5049021;28;20047;-56
2023/08/23 07:28:03;;;;;;;;;;;19.00;99.90;;;;;;5050951;28;20497;-51
2023/08/23 07:30:28;;;;;;;12.27;10.38;;;19.10;99.90;;;;;;5050597;28;19920;-53
2023/08/23 07:32:54;;;;;;;11.60;10.15;;;19.10;99.90;;;;;;5041028;28;20038;-53
2023/08/23 07:35:20;;;;;;;12.98;10.10;;;19.10;99.90;;;;;;5017515;28;20502;-57
2023/08/23 07:37:45;;;;;;;10.40;9.02;;;19.20;99.90;;;;;;5040268;28;20041;-55
2023/08/23 07:40:11;;;;;;;;;;;19.30;99.90;;;;;;5047640;28;20036;-54
2023/08/23 07:42:37;;;;;;;12.80;9.70;;;19.30;99.90;;;;;;5044192;28;19931;-55
2023/08/23 07:45:03;;;;;;;10.70;9.60;;;19.40;99.90;;;;;;5039370;28;20048;-55
2023/08/23 07:47:29;;;;;;;10.75;9.63;;;19.50;99.90;;;;;;5027242;28;20040;-53
2023/08/23 07:49:54;;;;;;;10.60;9.30;;;19.70;99.90;;;;;;5037593;28;20029;-57
2023/08/23 07:52:20;;;;;;;13.80;10.40;;;19.80;99.90;;;;;;5042560;28;20061;-56
2023/08/23 07:54:45;;;;;;;12.63;9.65;;;19.90;99.90;;;;;;5039506;28;20124;-53
2023/08/23 07:57:11;;;;;;;12.80;9.88;;;20.00;99.90;;;;;;5022323;28;20709;-57
2023/08/23 07:59:37;;;;;;;;;;;20.00;99.90;;;;;;5028020;28;20029;-54
2023/08/23 08:02:03;;;;;;;11.88;9.48;;;20.00;99.90;;;;;;5039774;28;20450;-57
2023/08/23 08:04:29;;;;;;;;;;;20.00;99.90;;;;;;5024916;28;20052;-57
2023/08/23 08:06:56;;;;;;;9.80;8.85;;;20.10;99.90;;;;;;5043159;28;19964;-56
2023/08/23 08:09:22;;;;;;;9.38;8.27;;;20.20;99.90;;;;;;5043598;28;20091;-56
2023/08/23 08:11:47;;;;;;;9.70;8.70;;;20.20;99.90;;;;;;5041742;28;20426;-57
2023/08/23 08:14:13;;;;;;;10.25;9.00;;;20.30;99.90;;;;;;5035053;28;20322;-56
2023/08/23 08:16:39;;;;;;;;;;;20.40;99.90;;;;;;5025984;28;20072;-56
2023/08/23 08:19:04;;;;;;;10.63;9.57;;;20.50;99.90;;;;;;5037293;28;19916;-55
2023/08/23 08:21:30;;;;;;;;;;;20.50;99.90;;;;;;5040461;28;20399;-56
2023/08/23 08:23:56;;;;;;;14.43;9.30;;;20.60;99.90;;;;;;5039411;28;19920;-55
2023/08/23 08:26:23;;;;;;;9.32;8.15;;;20.70;99.90;;;;;;5043357;28;20045;-57
2023/08/23 08:28:48;;;;;;;9.23;7.80;;;20.80;99.90;;;;;;5041941;28;20037;-58
2023/08/23 08:31:14;;;;;;;;;;;20.90;99.90;;;;;;5040452;28;20033;-55
2023/08/23 08:33:40;;;;;;;7.97;6.55;;;21.00;99.90;;;;;;5043411;28;19928;-53
2023/08/23 08:36:06;;;;;;;6.70;6.00;;;21.10;99.90;;;;;;5043578;28;20036;-54
2023/08/23 08:38:31;;;;;;;;;;;21.20;99.90;;;;;;5043724;28;20044;-58
2023/08/23 08:40:57;;;;;;;4.75;4.35;;;21.40;99.90;;;;;;5053435;28;19920;-56
2023/08/23 08:43:23;;;;;;;7.28;5.15;;;21.40;99.90;;;;;;5043012;28;20039;-53
2023/08/23 08:45:49;;;;;;;6.15;4.90;;;21.50;99.90;;;;;;5043701;28;20509;-56
2023/08/23 08:48:16;;;;;;;;;;;21.60;99.90;;;;;;5044863;28;20063;-56
2023/08/23 08:50:45;;;;;;;8.30;4.88;;;21.60;99.90;;;;;;5043959;28;20569;-58
2023/08/23 08:53:17;;;;;;;7.28;5.38;;;21.70;99.90;;;;;;5049663;28;20037;-57
2023/08/23 08:55:45;;;;;;;5.88;3.65;;;21.80;99.90;;;;;;5050590;28;20112;-57
2023/08/23 08:58:15;;;;;;;5.88;3.65;;;21.80;99.90;;;;;;5040444;28;20033;-57
2023/08/23 09:00:42;;;;;;;3.95;3.65;;;21.90;99.90;;;;;;5023935;28;20052;-56
2023/08/23 09:03:09;;;;;;;4.00;3.50;;;22.00;99.90;;;;;;5036865;28;20437;-58
2023/08/23 09:05:36;;;;;;;5.03;4.43;;;22.10;99.90;;;;;;5033220;28;20055;-56
2023/08/23 09:08:02;;;;;;;6.10;4.28;;;22.10;99.90;;;;;;5033017;28;20037;-58
2023/08/23 09:10:27;;;;;;;;;;;22.20;99.90;;;;;;5039038;28;20036;-56
2023/08/23 09:12:53;;;;;;;4.50;4.13;;;22.20;99.90;;;;;;5042066;28;20458;-56
2023/08/23 09:15:23;;;;;;;;;;;22.30;99.90;;;;;;5044156;28;20175;-53
2023/08/23 09:17:51;;;;;;;6.95;5.63;;;22.30;99.90;;;;;;5042977;28;20338;-58
2023/08/23 09:20:18;;;;;;;8.15;5.93;;;22.40;99.90;;;;;;5040608;28;20456;-58
2023/08/23 09:22:48;;;;;;;6.75;5.85;;;22.50;99.90;;;;;;5036630;28;20356;-55
2023/08/23 09:25:14;;;;;;;7.40;5.15;;;22.60;99.90;;;;;;5039713;28;20040;-56
2023/08/23 09:27:39;;;;;;;;;;;22.60;99.90;;;;;;5038595;28;20480;-58
2023/08/23 09:30:06;;;;;;;7.40;4.72;;;22.60;99.90;;;;;;5041663;28;19927;-58
2023/08/23 09:32:31;;;;;;;4.55;4.13;;;22.60;99.90;;;;;;5021532;28;20084;-56
2023/08/23 09:34:57;;;;;;;;;;;22.70;99.90;;;;;;5040392;28;20033;-58
2023/08/23 09:37:23;;;;;;;7.60;5.47;;;22.80;99.90;;;;;;5016309;28;19917;-57
2023/08/23 09:39:48;;;;;;;9.40;5.30;;;22.90;99.90;;;;;;5029904;28;20064;-59
2023/08/23 09:42:14;;;;;;;;;;;22.90;99.90;;;;;;5044740;28;20056;-56
2023/08/23 09:44:43;;;;;;;7.57;3.55;;;23.00;99.90;;;;;;5044449;28;19991;-55
2023/08/23 09:47:14;;;;;;;6.68;3.38;;;23.10;99.90;;;;;;5046434;28;20029;-58
2023/08/23 09:49:43;;;;;;;6.25;4.05;;;23.10;99.90;;;;;;5034103;28;20116;-57
2023/08/23 09:52:10;;;;;;;4.13;3.72;;;23.10;99.90;;;;;;5053351;28;20089;-56
2023/08/23 09:54:58;;;;;;;4.55;3.60;;;23.20;99.90;;;;;;5042722;28;20255;-57
2023/08/23 09:57:25;;;;;;;4.25;3.85;;;23.20;99.90;;;;;;5039861;28;20706;-58
2023/08/23 09:59:51;;;;;;;6.72;4.00;;;23.30;99.90;;;;;;5040856;28;20041;-57
2023/08/23 10:02:18;;;;;;;7.05;3.55;;;23.40;99.90;;;;;;5023327;28;20041;-58
2023/08/23 10:04:44;;;;;;;6.35;4.25;;;23.40;99.90;;;;;;5042548;28;20303;-58
2023/08/23 10:07:11;;;;;;;5.13;3.28;;;23.50;99.90;;;;;;5039653;28;20264;-57
2023/08/23 10:09:38;;;;;;;3.13;2.90;;;23.50;99.90;;;;;;5047036;28;20055;-58
2023/08/23 10:12:06;;;;;;;2.45;2.25;;;23.50;99.90;;;;;;5044491;28;20048;-58
2023/08/23 10:14:35;;;;;;;2.83;2.55;;;23.50;99.90;;;;;;5039699;28;20116;-56
2023/08/23 10:17:03;;;;;;;3.95;1.67;;;23.70;99.90;;;;;;5040453;28;20116;-57
2023/08/23 10:19:29;;;;;;;2.47;2.05;;;23.80;99.90;;;;;;5042162;28;20041;-57
2023/08/23 10:21:55;;;;;;;3.08;2.30;;;23.70;99.90;;;;;;5040265;28;20056;-58
2023/08/23 10:24:34;;;;;;;4.40;2.35;;;23.70;99.90;;;;;;5044121;28;20032;-57
2023/08/23 10:27:09;;;;;;;2.20;1.63;;;23.80;99.90;;;;;;5040297;28;20033;-56
2023/08/23 10:29:37;;;;;;;2.42;1.80;;;23.90;99.90;;;;;;5039650;28;20203;-56
2023/08/23 10:32:07;;;;;;;2.03;1.17;;;23.90;99.90;;;;;;5045222;28;20037;-58
2023/08/23 10:34:35;;;;;;;3.30;1.33;;;24.00;99.90;;;;;;5041799;28;20064;-56
2023/08/23 10:37:16;;;;;;;4.97;1.65;;;24.00;99.90;;;;;;5023656;28;20072;-57
2023/08/23 10:39:48;;;;;;;3.50;1.80;;;24.20;99.90;;;;;;5040463;28;20052;-58
2023/08/23 10:42:14;;;;;;;1.48;1.38;;;24.20;99.90;;;;;;5043203;28;20028;-58
2023/08/23 10:44:44;;;;;;;2.35;1.08;;;24.40;99.90;;;;;;5025944;28;20056;-57
2023/08/23 10:47:10;;;;;;;2.22;1.20;;;24.40;99.90;;;;;;5039710;28;20386;-54
2023/08/23 10:49:36;;;;;;;1.98;0.68;;;24.40;99.90;;;;;;5040461;28;20029;-55
2023/08/23 10:52:02;;;;;;;2.92;0.65;;;24.40;99.90;;;;;;5045019;28;20033;-57
2023/08/23 10:54:28;;;;;;;6.60;1.10;;;24.40;99.90;;;;;;5039765;28;20041;-56
2023/08/23 10:56:53;;;;;;;1.73;0.85;;;24.40;99.90;;;;;;5042752;28;20036;-56
2023/08/23 10:59:19;;;;;;;4.78;0.60;;;24.40;99.90;;;;;;5044074;28;20048;-53
2023/08/23 11:01:45;;;;;;;4.25;0.70;;;24.40;99.90;;;;;;5044610;28;20124;-58
2023/08/23 11:04:12;;;;;;;4.63;0.90;;;24.50;99.90;;;;;;5044745;28;20041;-55
2023/08/23 11:06:38;;;;;;;2.45;0.80;;;24.50;99.90;;;;;;5042598;28;20041;-58
2023/08/23 11:09:04;;;;;;;0.73;0.63;;;24.60;99.90;;;;;;5027103;28;20367;-57
2023/08/23 11:11:30;;;;;;;4.45;0.85;;;24.80;99.90;;;;;;5043114;28;20044;-57
2023/08/23 11:13:56;;;;;;;2.85;0.80;;;24.90;99.90;;;;;;5024494;28;20086;-57
2023/08/23 11:16:22;;;;;;;2.67;0.63;;;24.90;99.90;;;;;;5044011;28;20538;-58
2023/08/23 11:18:49;;;;;;;2.03;0.60;;;24.90;99.90;;;;;;5027725;28;20072;-58
2023/08/23 11:21:15;;;;;;;0.90;0.50;;;24.90;99.80;;;;;;5044209;28;20033;-57
2023/08/23 11:23:41;;;;;;;3.28;0.63;;;24.80;99.90;;;;;;5042026;28;20047;-56
2023/08/23 11:26:07;;;;;;;1.33;0.50;;;24.80;99.90;;;;;;5049104;28;20044;-56
2023/08/23 11:28:33;;;;;;;4.70;0.90;;;24.70;99.20;;;;;;5039526;28;20029;-57
2023/08/23 11:30:59;;;;;;;1.13;0.47;;;24.70;99.40;;;;;;5044185;28;20367;-58
2023/08/23 11:33:25;;;;;;;3.30;0.70;;;24.60;99.60;;;;;;5046711;28;20395;-55
2023/08/23 11:35:52;;;;;;;1.92;0.60;;;24.60;99.90;;;;;;5044024;28;20036;-58
2023/08/23 11:38:17;;;;;;;3.50;0.60;;;24.50;99.90;;;;;;5046375;28;20048;-58
2023/08/23 11:40:46;;;;;;;4.13;0.68;;;24.70;99.90;;;;;;5042164;28;20050;-53
2023/08/23 11:43:15;;;;;;;5.05;0.50;;;24.90;99.90;;;;;;5041895;28;20044;-54
2023/08/23 11:45:42;;;;;;;0.85;0.40;;;25.00;99.70;;;;;;5042881;28;20048;-58
2023/08/23 11:48:10;;;;;;;2.50;0.40;;;25.20;99.90;;;;;;5043749;28;20415;-59
2023/08/23 11:50:37;;;;;;;3.03;0.63;;;25.40;99.90;;;;;;5038881;28;20034;-60
2023/08/23 11:53:05;;;;;;;3.72;0.85;;;25.50;99.80;;;;;;5040996;28;20089;-58
2023/08/23 11:55:33;;;;;;;2.55;0.68;;;25.40;99.30;;;;;;5019579;28;20048;-58
2023/08/23 11:57:59;;;;;;;5.25;0.77;;;25.40;99.30;;;;;;5039864;28;20583;-59
2023/08/23 12:00:25;;;;;;;3.63;0.52;;;25.40;99.20;;;;;;5044348;28;20044;-59
2023/08/23 12:02:51;;;;;;;1.05;0.40;;;25.30;99.30;;;;;;5018122;28;20067;-59
2023/08/23 12:05:19;;;;;;;3.47;0.63;;;25.30;99.70;;;;;;5044497;28;20454;-58
2023/08/23 12:07:47;;;;;;;3.40;1.17;;;25.40;99.60;;;;;;5041285;28;20535;-57
2023/08/23 12:10:14;;;;;;;2.17;0.65;;;25.50;99.30;;;;;;5044697;28;20036;-59
2023/08/23 12:12:40;;;;;;;5.50;0.40;;;25.60;99.00;;;;;;5040385;28;20043;-54
2023/08/23 12:15:06;;;;;;;2.13;0.43;;;25.80;99.40;;;;;;5023267;28;20123;-58
2023/08/23 12:17:32;;;;;;;2.13;0.70;;;25.80;99.00;;;;;;5043666;28;20287;-58
2023/08/23 12:19:58;;;;;;;2.00;0.55;;;25.70;98.40;;;;;;5042545;28;20406;-58
2023/08/23 12:22:24;;;;;;;2.33;0.82;;;25.70;98.60;;;;;;5024708;28;20066;-59
2023/08/23 12:24:50;;;;;;;4.90;0.98;;;25.80;98.70;;;;;;5041497;28;20037;-59
2023/08/23 12:27:16;;;;;;;4.43;0.50;;;26.00;98.00;;;;;;5042369;28;20340;-58
2023/08/23 12:29:41;;;;;;;3.25;0.63;;;26.10;97.50;;;;;;5040534;28;20549;-57
2023/08/23 12:32:10;;;;;;;3.22;0.98;;;26.20;98.20;;;;;;5043854;28;20064;-59
2023/08/23 12:34:35;;;;;;;1.73;0.73;;;26.20;97.70;;;;;;5040242;28;20521;-60
2023/08/23 12:37:01;;;;;;;2.53;0.70;;;26.20;98.10;;;;;;5040653;28;20032;-58
2023/08/23 12:39:27;;;;;;;2.33;0.80;;;26.10;98.30;;;;;;5040724;28;20130;-60